sensor_id;sensor_type;location;lat;lon;timestamp;pressure;altitude;pressure_sealevel;temperature;humidity
42587;BME280;28216;53.362;-6.288;2023-04-07T00:00:59;101855.38;;;7.62;100.00
42587;BME280;28216;53.362;-6.288;2023-04-07T00:03:24;101859.63;;;7.63;100.00
42587;BME280;28216;53.362;-6.288;2023-04-07T00:05:50;101848.59;;;7.59;100.00
42587;BME280;28216;53.362;-6.288;2023-04-07T00:08:15;101858.31;;;7.57;100.00
42587;BME280;28216;53.362;-6.288;2023-04-07T00:10:41;101852.50;;;7.54;100.00
42587;BME280;28216;53.362;-6.288;2023-04-07T00:13:06;101855.31;;;7.51;100.00
42587;BME280;28216;53.362;-6.288;2023-04-07T00:15:32;101854.81;;;7.46;100.00
42587;BME280;28216;53.362;-6.288;2023-04-07T00:17:57;101859.31;;;7.44;100.00
42587;BME280;28216;53.362;-6.288;2023-04-07T00:20:23;101861.19;;;7.42;100.00
42587;BME280;28216;53.362;-6.288;2023-04-07T00:22:48;101873.50;;;7.40;100.00
42587;BME280;28216;53.362;-6.288;2023-04-07T00:25:14;101862.00;;;7.42;100.00
42587;BME280;28216;53.362;-6.288;2023-04-07T00:27:40;101862.13;;;7.41;100.00
42587;BME280;28216;53.362;-6.288;2023-04-07T00:30:06;101862.84;;;7.43;100.00
42587;BME280;28216;53.362;-6.288;2023-04-07T00:32:31;101848.06;;;7.43;100.00
42587;BME280;28216;53.362;-6.288;2023-04-07T00:34:57;101860.56;;;7.38;100.00
42587;BME280;28216;53.362;-6.288;2023-04-07T00:37:22;101870.28;;;7.36;100.00
42587;BME280;28216;53.362;-6.288;2023-04-07T00:39:50;101853.69;;;7.37;100.00
42587;BME280;28216;53.362;-6.288;2023-04-07T00:42:16;101850.25;;;7.37;100.00
42587;BME280;28216;53.362;-6.288;2023-04-07T00:44:41;101847.25;;;7.30;100.00
42587;BME280;28216;53.362;-6.288;2023-04-07T00:47:07;101856.25;;;7.26;100.00
42587;BME280;28216;53.362;-6.288;2023-04-07T00:49:32;101850.41;;;7.22;100.00
42587;BME280;28216;53.362;-6.288;2023-04-07T00:51:58;101855.84;;;7.19;100.00
42587;BME280;28216;53.362;-6.288;2023-04-07T00:54:23;101855.97;;;7.18;100.00
42587;BME280;28216;53.362;-6.288;2023-04-07T00:56:49;101850.25;;;7.13;100.00
42587;BME280;28216;53.362;-6.288;2023-04-07T00:59:15;101864.00;;;7.15;100.00
42587;BME280;28216;53.362;-6.288;2023-04-07T01:02:31;101855.25;;;7.16;100.00
42587;BME280;28216;53.362;-6.288;2023-04-07T01:04:43;101849.63;;;7.09;100.00
42587;BME280;28216;53.362;-6.288;2023-04-07T01:07:15;101848.81;;;7.09;100.00
42587;BME280;28216;53.362;-6.288;2023-04-07T01:09:50;101849.84;;;7.06;100.00
42587;BME280;28216;53.362;-6.288;2023-04-07T01:12:34;101855.19;;;7.05;100.00
42587;BME280;28216;53.362;-6.288;2023-04-07T01:15:08;101847.59;;;7.01;100.00
42587;BME280;28216;53.362;-6.288;2023-04-07T01:17:37;101852.06;;;6.99;100.00
42587;BME280;28216;53.362;-6.288;2023-04-07T01:20:04;101846.47;;;6.93;100.00
42587;BME280;28216;53.362;-6.288;2023-04-07T01:22:42;101840.75;;;6.88;100.00
42587;BME280;28216;53.362;-6.288;2023-04-07T01:25:22;101851.38;;;6.85;100.00
42587;BME280;28216;53.362;-6.288;2023-04-07T01:27:53;101848.88;;;6.83;100.00
42587;BME280;28216;53.362;-6.288;2023-04-07T01:30:27;101853.28;;;6.83;100.00
42587;BME280;28216;53.362;-6.288;2023-04-07T01:32:55;101846.59;;;6.79;100.00
42587;BME280;28216;53.362;-6.288;2023-04-07T01:35:23;101844.31;;;6.74;100.00
42587;BME280;28216;53.362;-6.288;2023-04-07T01:37:49;101840.16;;;6.72;100.00
42587;BME280;28216;53.362;-6.288;2023-04-07T01:40:17;101844.72;;;6.68;100.00
42587;BME280;28216;53.362;-6.288;2023-04-07T01:42:44;101845.47;;;6.70;100.00
42587;BME280;28216;53.362;-6.288;2023-04-07T01:45:11;101845.78;;;6.65;100.00
42587;BME280;28216;53.362;-6.288;2023-04-07T01:47:38;101849.53;;;6.61;100.00
42587;BME280;28216;53.362;-6.288;2023-04-07T01:50:06;101847.16;;;6.58;100.00
42587;BME280;28216;53.362;-6.288;2023-04-07T01:52:34;101854.03;;;6.59;100.00
42587;BME280;28216;53.362;-6.288;2023-04-07T01:55:00;101849.97;;;6.55;100.00
42587;BME280;28216;53.362;-6.288;2023-04-07T01:57:26;101846.53;;;6.55;100.00
42587;BME280;28216;53.362;-6.288;2023-04-07T01:59:52;101851.72;;;6.55;100.00
42587;BME280;28216;53.362;-6.288;2023-04-07T02:02:18;101844.75;;;6.55;100.00
42587;BME280;28216;53.362;-6.288;2023-04-07T02:04:59;101844.03;;;6.53;100.00
42587;BME280;28216;53.362;-6.288;2023-04-07T02:07:45;101845.06;;;6.51;100.00
42587;BME280;28216;53.362;-6.288;2023-04-07T02:10:15;101839.44;;;6.44;100.00
42587;BME280;28216;53.362;-6.288;2023-04-07T02:12:41;101849.16;;;6.42;100.00
42587;BME280;28216;53.362;-6.288;2023-04-07T02:15:09;101844.03;;;6.41;100.00
42587;BME280;28216;53.362;-6.288;2023-04-07T02:17:38;101842.59;;;6.36;100.00
42587;BME280;28216;53.362;-6.288;2023-04-07T02:20:08;101846.66;;;6.41;100.00
42587;BME280;28216;53.362;-6.288;2023-04-07T02:22:36;101841.88;;;6.34;100.00
42587;BME280;28216;53.362;-6.288;2023-04-07T02:25:02;101841.25;;;6.31;100.00
42587;BME280;28216;53.362;-6.288;2023-04-07T02:27:28;101842.38;;;6.27;100.00
42587;BME280;28216;53.362;-6.288;2023-04-07T02:29:53;101836.25;;;6.28;100.00
42587;BME280;28216;53.362;-6.288;2023-04-07T02:32:18;101839.88;;;6.25;100.00
42587;BME280;28216;53.362;-6.288;2023-04-07T02:34:44;101846.88;;;6.25;100.00
42587;BME280;28216;53.362;-6.288;2023-04-07T02:37:10;101845.31;;;6.22;100.00
42587;BME280;28216;53.362;-6.288;2023-04-07T02:39:35;101842.81;;;6.21;100.00
42587;BME280;28216;53.362;-6.288;2023-04-07T02:42:01;101842.28;;;6.16;100.00
42587;BME280;28216;53.362;-6.288;2023-04-07T02:44:26;101838.00;;;6.15;100.00
42587;BME280;28216;53.362;-6.288;2023-04-07T02:46:51;101839.69;;;6.16;100.00
42587;BME280;28216;53.362;-6.288;2023-04-07T02:49:17;101839.16;;;6.11;100.00
42587;BME280;28216;53.362;-6.288;2023-04-07T02:51:42;101840.72;;;6.13;100.00
42587;BME280;28216;53.362;-6.288;2023-04-07T02:54:08;101841.03;;;6.09;100.00
42587;BME280;28216;53.362;-6.288;2023-04-07T02:56:33;101841.75;;;6.11;100.00
42587;BME280;28216;53.362;-6.288;2023-04-07T02:58:59;101846.34;;;6.07;100.00
42587;BME280;28216;53.362;-6.288;2023-04-07T03:01:24;101838.13;;;6.00;100.00
42587;BME280;28216;53.362;-6.288;2023-04-07T03:03:50;101842.28;;;6.03;100.00
42587;BME280;28216;53.362;-6.288;2023-04-07T03:06:15;101840.72;;;6.00;100.00
42587;BME280;28216;53.362;-6.288;2023-04-07T03:08:41;101840.00;;;5.98;100.00
42587;BME280;28216;53.362;-6.288;2023-04-07T03:11:06;101836.66;;;5.96;100.00
42587;BME280;28216;53.362;-6.288;2023-04-07T03:13:32;101835.00;;;5.95;100.00
42587;BME280;28216;53.362;-6.288;2023-04-07T03:15:57;101840.38;;;5.92;100.00
42587;BME280;28216;53.362;-6.288;2023-04-07T03:18:23;101839.53;;;5.92;100.00
42587;BME280;28216;53.362;-6.288;2023-04-07T03:20:48;101839.09;;;5.85;100.00
42587;BME280;28216;53.362;-6.288;2023-04-07T03:23:14;101835.75;;;5.83;100.00
42587;BME280;28216;53.362;-6.288;2023-04-07T03:25:39;101834.09;;;5.82;100.00
42587;BME280;28216;53.362;-6.288;2023-04-07T03:28:05;101836.78;;;5.81;100.00
42587;BME280;28216;53.362;-6.288;2023-04-07T03:30:31;101831.38;;;5.84;100.00
42587;BME280;28216;53.362;-6.288;2023-04-07T03:32:57;101834.81;;;5.84;100.00
42587;BME280;28216;53.362;-6.288;2023-04-07T03:35:22;101833.97;;;5.84;100.00
42587;BME280;28216;53.362;-6.288;2023-04-07T03:37:48;101838.66;;;5.79;100.00
42587;BME280;28216;53.362;-6.288;2023-04-07T03:40:13;101834.28;;;5.79;100.00
42587;BME280;28216;53.362;-6.288;2023-04-07T03:42:39;101843.34;;;5.73;100.00
42587;BME280;28216;53.362;-6.288;2023-04-07T03:45:05;101848.44;;;5.75;100.00
42587;BME280;28216;53.362;-6.288;2023-04-07T03:47:30;101842.50;;;5.73;100.00
42587;BME280;28216;53.362;-6.288;2023-04-07T03:49:56;101841.66;;;5.72;100.00
42587;BME280;28216;53.362;-6.288;2023-04-07T03:52:21;101835.72;;;5.70;100.00
42587;BME280;28216;53.362;-6.288;2023-04-07T03:54:47;101841.25;;;5.66;100.00
42587;BME280;28216;53.362;-6.288;2023-04-07T03:57:12;101846.44;;;5.66;100.00
42587;BME280;28216;53.362;-6.288;2023-04-07T03:59:38;101833.53;;;5.64;100.00
42587;BME280;28216;53.362;-6.288;2023-04-07T04:02:03;101838.94;;;5.61;100.00
42587;BME280;28216;53.362;-6.288;2023-04-07T04:04:28;101832.16;;;5.59;100.00
42587;BME280;28216;53.362;-6.288;2023-04-07T04:06:54;101835.72;;;5.58;100.00
42587;BME280;28216;53.362;-6.288;2023-04-07T04:09:20;101833.50;;;5.52;100.00
42587;BME280;28216;53.362;-6.288;2023-04-07T04:11:45;101836.75;;;5.55;100.00
42587;BME280;28216;53.362;-6.288;2023-04-07T04:14:11;101832.38;;;5.56;100.00
42587;BME280;28216;53.362;-6.288;2023-04-07T04:16:36;101831.22;;;5.47;100.00
42587;BME280;28216;53.362;-6.288;2023-04-07T04:19:02;101831.94;;;5.49;100.00
42587;BME280;28216;53.362;-6.288;2023-04-07T04:21:27;101831.75;;;5.52;100.00
42587;BME280;28216;53.362;-6.288;2023-04-07T04:23:52;101837.88;;;5.51;100.00
42587;BME280;28216;53.362;-6.288;2023-04-07T04:26:18;101833.91;;;5.46;100.00
42587;BME280;28216;53.362;-6.288;2023-04-07T04:28:43;101835.78;;;5.43;100.00
42587;BME280;28216;53.362;-6.288;2023-04-07T04:31:09;101828.91;;;5.42;100.00
42587;BME280;28216;53.362;-6.288;2023-04-07T04:33:34;101830.69;;;5.42;100.00
42587;BME280;28216;53.362;-6.288;2023-04-07T04:36:01;101833.91;;;5.46;100.00
42587;BME280;28216;53.362;-6.288;2023-04-07T04:38:26;101835.69;;;5.45;100.00
42587;BME280;28216;53.362;-6.288;2023-04-07T04:40:51;101830.56;;;5.43;100.00
42587;BME280;28216;53.362;-6.288;2023-04-07T04:43:17;101830.69;;;5.42;100.00
42587;BME280;28216;53.362;-6.288;2023-04-07T04:45:42;101832.53;;;5.40;100.00
42587;BME280;28216;53.362;-6.288;2023-04-07T04:48:08;101838.78;;;5.37;100.00
42587;BME280;28216;53.362;-6.288;2023-04-07T04:50:35;101828.28;;;5.39;100.00
42587;BME280;28216;53.362;-6.288;2023-04-07T04:53:00;101838.78;;;5.37;100.00
42587;BME280;28216;53.362;-6.288;2023-04-07T04:55:26;101832.09;;;5.33;100.00
42587;BME280;28216;53.362;-6.288;2023-04-07T04:57:52;101838.13;;;5.34;100.00
42587;BME280;28216;53.362;-6.288;2023-04-07T05:00:17;101839.91;;;5.33;100.00
42587;BME280;28216;53.362;-6.288;2023-04-07T05:02:43;101837.50;;;5.30;100.00
42587;BME280;28216;53.362;-6.288;2023-04-07T05:05:08;101832.41;;;5.29;100.00
42587;BME280;28216;53.362;-6.288;2023-04-07T05:07:34;101833.34;;;5.28;100.00
42587;BME280;28216;53.362;-6.288;2023-04-07T05:10:00;101833.44;;;5.26;100.00
42587;BME280;28216;53.362;-6.288;2023-04-07T05:12:25;101830.09;;;5.24;100.00
42587;BME280;28216;53.362;-6.288;2023-04-07T05:14:51;101837.91;;;5.24;100.00
42587;BME280;28216;53.362;-6.288;2023-04-07T05:17:16;101840.69;;;5.21;100.00
42587;BME280;28216;53.362;-6.288;2023-04-07T05:19:42;101836.44;;;5.20;100.00
42587;BME280;28216;53.362;-6.288;2023-04-07T05:22:08;101844.28;;;5.19;100.00
42587;BME280;28216;53.362;-6.288;2023-04-07T05:24:33;101839.09;;;5.19;100.00
42587;BME280;28216;53.362;-6.288;2023-04-07T05:26:58;101840.13;;;5.16;100.00
42587;BME280;28216;53.362;-6.288;2023-04-07T05:29:25;101841.16;;;5.14;100.00
42587;BME280;28216;53.362;-6.288;2023-04-07T05:31:51;101845.53;;;5.13;100.00
42587;BME280;28216;53.362;-6.288;2023-04-07T05:34:16;101849.69;;;5.16;100.00
42587;BME280;28216;53.362;-6.288;2023-04-07T05:36:42;101843.75;;;5.14;100.00
42587;BME280;28216;53.362;-6.288;2023-04-07T05:39:07;101848.22;;;5.11;100.00
42587;BME280;28216;53.362;-6.288;2023-04-07T05:41:33;101853.31;;;5.13;100.00
42587;BME280;28216;53.362;-6.288;2023-04-07T05:43:58;101849.78;;;5.14;100.00
42587;BME280;28216;53.362;-6.288;2023-04-07T05:46:23;101854.25;;;5.12;100.00
42587;BME280;28216;53.362;-6.288;2023-04-07T05:48:49;101853.22;;;5.15;100.00
42587;BME280;28216;53.362;-6.288;2023-04-07T05:51:15;101856.84;;;5.12;100.00
42587;BME280;28216;53.362;-6.288;2023-04-07T05:53:40;101855.91;;;5.13;100.00
42587;BME280;28216;53.362;-6.288;2023-04-07T05:56:05;101848.13;;;5.13;100.00
42587;BME280;28216;53.362;-6.288;2023-04-07T05:58:31;101859.06;;;5.18;100.00
42587;BME280;28216;53.362;-6.288;2023-04-07T06:00:57;101853.75;;;5.20;100.00
42587;BME280;28216;53.362;-6.288;2023-04-07T06:03:22;101857.03;;;5.23;100.00
42587;BME280;28216;53.362;-6.288;2023-04-07T06:05:48;101856.84;;;5.26;100.00
42587;BME280;28216;53.362;-6.288;2023-04-07T06:08:13;101854.78;;;5.31;100.00
42587;BME280;28216;53.362;-6.288;2023-04-07T06:10:38;101857.09;;;5.36;100.00
42587;BME280;28216;53.362;-6.288;2023-04-07T06:13:06;101857.50;;;5.42;100.00
42587;BME280;28216;53.362;-6.288;2023-04-07T06:15:31;101859.00;;;5.47;100.00
42587;BME280;28216;53.362;-6.288;2023-04-07T06:17:57;101857.75;;;5.52;100.00
42587;BME280;28216;53.362;-6.288;2023-04-07T06:20:22;101858.19;;;5.59;100.00
42587;BME280;28216;53.362;-6.288;2023-04-07T06:22:48;101863.28;;;5.60;100.00
42587;BME280;28216;53.362;-6.288;2023-04-07T06:25:14;101868.81;;;5.68;100.00
42587;BME280;28216;53.362;-6.288;2023-04-07T06:27:39;101864.97;;;5.74;100.00
42587;BME280;28216;53.362;-6.288;2023-04-07T06:30:05;101868.13;;;5.79;100.00
42587;BME280;28216;53.362;-6.288;2023-04-07T06:32:31;101861.16;;;5.80;100.00
42587;BME280;28216;53.362;-6.288;2023-04-07T06:34:57;101851.00;;;5.89;100.00
42587;BME280;28216;53.362;-6.288;2023-04-07T06:37:23;101862.03;;;5.93;100.00
42587;BME280;28216;53.362;-6.288;2023-04-07T06:39:50;101864.97;;;6.01;100.00
42587;BME280;28216;53.362;-6.288;2023-04-07T06:42:15;101862.38;;;6.14;100.00
42587;BME280;28216;53.362;-6.288;2023-04-07T06:44:41;101855.81;;;6.33;100.00
42587;BME280;28216;53.362;-6.288;2023-04-07T06:47:06;101868.38;;;6.90;100.00
42587;BME280;28216;53.362;-6.288;2023-04-07T06:49:33;101866.81;;;7.48;100.00
42587;BME280;28216;53.362;-6.288;2023-04-07T06:51:58;101863.53;;;7.92;100.00
42587;BME280;28216;53.362;-6.288;2023-04-07T06:54:24;101859.88;;;8.06;100.00
42587;BME280;28216;53.362;-6.288;2023-04-07T06:56:49;101859.81;;;8.19;100.00
42587;BME280;28216;53.362;-6.288;2023-04-07T06:59:15;101855.69;;;8.39;100.00
42587;BME280;28216;53.362;-6.288;2023-04-07T07:01:43;101857.72;;;8.46;100.00
42587;BME280;28216;53.362;-6.288;2023-04-07T07:04:09;101856.63;;;8.71;100.00
42587;BME280;28216;53.362;-6.288;2023-04-07T07:06:43;101856.25;;;8.98;100.00
42587;BME280;28216;53.362;-6.288;2023-04-07T07:09:09;101853.50;;;9.11;100.00
42587;BME280;28216;53.362;-6.288;2023-04-07T07:11:35;101864.53;;;9.14;100.00
42587;BME280;28216;53.362;-6.288;2023-04-07T07:14:00;101862.28;;;9.10;100.00
42587;BME280;28216;53.362;-6.288;2023-04-07T07:16:26;101862.97;;;9.23;100.00
42587;BME280;28216;53.362;-6.288;2023-04-07T07:18:53;101874.31;;;9.44;100.00
42587;BME280;28216;53.362;-6.288;2023-04-07T07:21:20;101869.38;;;9.62;100.00
42587;BME280;28216;53.362;-6.288;2023-04-07T07:23:45;101869.34;;;9.94;100.00
42587;BME280;28216;53.362;-6.288;2023-04-07T07:26:11;101866.94;;;10.44;100.00
42587;BME280;28216;53.362;-6.288;2023-04-07T07:28:36;101863.06;;;10.78;100.00
42587;BME280;28216;53.362;-6.288;2023-04-07T07:31:09;101857.91;;;11.17;100.00
42587;BME280;28216;53.362;-6.288;2023-04-07T07:33:35;101860.53;;;11.27;100.00
42587;BME280;28216;53.362;-6.288;2023-04-07T07:36:00;101860.13;;;11.41;100.00
42587;BME280;28216;53.362;-6.288;2023-04-07T07:38:26;101852.53;;;11.86;100.00
42587;BME280;28216;53.362;-6.288;2023-04-07T07:40:52;101855.22;;;12.33;100.00
42587;BME280;28216;53.362;-6.288;2023-04-07T07:43:17;101864.25;;;12.58;100.00
42587;BME280;28216;53.362;-6.288;2023-04-07T07:45:43;101857.59;;;12.63;100.00
42587;BME280;28216;53.362;-6.288;2023-04-07T07:48:08;101865.78;;;12.88;100.00
42587;BME280;28216;53.362;-6.288;2023-04-07T07:50:34;101860.00;;;13.02;100.00
42587;BME280;28216;53.362;-6.288;2023-04-07T07:53:00;101855.56;;;13.02;100.00
42587;BME280;28216;53.362;-6.288;2023-04-07T07:55:26;101857.59;;;13.18;100.00
42587;BME280;28216;53.362;-6.288;2023-04-07T07:57:51;101853.47;;;13.06;100.00
42587;BME280;28216;53.362;-6.288;2023-04-07T08:00:17;101856.03;;;13.16;100.00
42587;BME280;28216;53.362;-6.288;2023-04-07T08:02:42;101854.56;;;13.31;100.00
42587;BME280;28216;53.362;-6.288;2023-04-07T08:05:08;101846.31;;;13.44;100.00
42587;BME280;28216;53.362;-6.288;2023-04-07T08:07:34;101853.59;;;13.67;100.00
42587;BME280;28216;53.362;-6.288;2023-04-07T08:09:59;101850.00;;;13.94;100.00
42587;BME280;28216;53.362;-6.288;2023-04-07T08:12:25;101846.41;;;14.21;100.00
42587;BME280;28216;53.362;-6.288;2023-04-07T08:14:50;101848.03;;;14.14;100.00
42587;BME280;28216;53.362;-6.288;2023-04-07T08:17:16;101845.59;;;14.21;100.00
42587;BME280;28216;53.362;-6.288;2023-04-07T08:19:41;101844.31;;;14.33;100.00
42587;BME280;28216;53.362;-6.288;2023-04-07T08:22:07;101839.50;;;14.54;100.00
42587;BME280;28216;53.362;-6.288;2023-04-07T08:24:34;101849.63;;;14.67;100.00
42587;BME280;28216;53.362;-6.288;2023-04-07T08:27:00;101838.31;;;14.49;100.00
42587;BME280;28216;53.362;-6.288;2023-04-07T08:29:25;101850.91;;;14.29;100.00
42587;BME280;28216;53.362;-6.288;2023-04-07T08:31:51;101843.81;;;14.55;100.00
42587;BME280;28216;53.362;-6.288;2023-04-07T08:34:16;101850.06;;;13.77;100.00
42587;BME280;28216;53.362;-6.288;2023-04-07T08:36:43;101845.31;;;13.62;100.00
42587;BME280;28216;53.362;-6.288;2023-04-07T08:39:09;101844.38;;;13.89;100.00
42587;BME280;28216;53.362;-6.288;2023-04-07T08:41:39;101850.94;;;13.85;100.00
42587;BME280;28216;53.362;-6.288;2023-04-07T08:44:06;101854.00;;;13.55;100.00
42587;BME280;28216;53.362;-6.288;2023-04-07T08:46:33;101850.22;;;13.57;100.00
42587;BME280;28216;53.362;-6.288;2023-04-07T08:49:00;101850.16;;;13.49;100.00
42587;BME280;28216;53.362;-6.288;2023-04-07T08:51:28;101854.97;;;13.54;100.00
42587;BME280;28216;53.362;-6.288;2023-04-07T08:54:03;101856.16;;;13.24;100.00
42587;BME280;28216;53.362;-6.288;2023-04-07T08:56:31;101858.41;;;13.36;100.00
42587;BME280;28216;53.362;-6.288;2023-04-07T08:59:01;101850.88;;;13.24;100.00
42587;BME280;28216;53.362;-6.288;2023-04-07T09:01:27;101845.16;;;13.28;100.00
42587;BME280;28216;53.362;-6.288;2023-04-07T09:03:55;101849.41;;;13.12;100.00
42587;BME280;28216;53.362;-6.288;2023-04-07T09:06:22;101846.69;;;13.03;100.00
42587;BME280;28216;53.362;-6.288;2023-04-07T09:08:48;101846.75;;;12.94;100.00
42587;BME280;28216;53.362;-6.288;2023-04-07T09:11:13;101841.34;;;12.95;100.00
42587;BME280;28216;53.362;-6.288;2023-04-07T09:13:39;101843.91;;;12.87;100.00
42587;BME280;28216;53.362;-6.288;2023-04-07T09:16:05;101845.34;;;12.99;100.00
42587;BME280;28216;53.362;-6.288;2023-04-07T09:18:30;101850.13;;;12.86;100.00
42587;BME280;28216;53.362;-6.288;2023-04-07T09:21:00;101851.19;;;12.93;100.00
42587;BME280;28216;53.362;-6.288;2023-04-07T09:23:27;101848.84;;;12.63;100.00
42587;BME280;28216;53.362;-6.288;2023-04-07T09:25:54;101854.44;;;12.87;100.00
42587;BME280;28216;53.362;-6.288;2023-04-07T09:28:19;101852.47;;;12.89;100.00
42587;BME280;28216;53.362;-6.288;2023-04-07T09:30:54;101850.22;;;12.94;100.00
42587;BME280;28216;53.362;-6.288;2023-04-07T09:33:29;101848.97;;;13.16;100.00
42587;BME280;28216;53.362;-6.288;2023-04-07T09:35:55;101849.84;;;13.17;100.00
42587;BME280;28216;53.362;-6.288;2023-04-07T09:38:22;101854.38;;;12.97;100.00
42587;BME280;28216;53.362;-6.288;2023-04-07T09:41:07;101846.34;;;13.16;100.00
42587;BME280;28216;53.362;-6.288;2023-04-07T09:43:35;101850.50;;;13.19;100.00
42587;BME280;28216;53.362;-6.288;2023-04-07T09:46:18;101846.22;;;13.18;100.00
42587;BME280;28216;53.362;-6.288;2023-04-07T09:48:45;101850.09;;;13.14;100.00
42587;BME280;28216;53.362;-6.288;2023-04-07T09:51:12;101847.88;;;13.19;100.00
42587;BME280;28216;53.362;-6.288;2023-04-07T09:53:43;101842.19;;;13.14;100.00
42587;BME280;28216;53.362;-6.288;2023-04-07T09:56:09;101852.78;;;13.31;100.00
42587;BME280;28216;53.362;-6.288;2023-04-07T09:58:37;101844.88;;;13.31;100.00
42587;BME280;28216;53.362;-6.288;2023-04-07T10:01:07;101849.53;;;13.38;100.00
42587;BME280;28216;53.362;-6.288;2023-04-07T10:03:34;101854.28;;;13.52;100.00
42587;BME280;28216;53.362;-6.288;2023-04-07T10:06:00;101847.06;;;13.36;100.00
42587;BME280;28216;53.362;-6.288;2023-04-07T10:08:41;101849.94;;;13.15;100.00
42587;BME280;28216;53.362;-6.288;2023-04-07T10:11:07;101849.22;;;13.23;100.00
42587;BME280;28216;53.362;-6.288;2023-04-07T10:13:34;101843.81;;;13.24;100.00
42587;BME280;28216;53.362;-6.288;2023-04-07T10:16:06;101847.88;;;13.36;100.00
42587;BME280;28216;53.362;-6.288;2023-04-07T10:18:33;101839.31;;;13.52;100.00
42587;BME280;28216;53.362;-6.288;2023-04-07T10:21:01;101840.00;;;13.54;100.00
42587;BME280;28216;53.362;-6.288;2023-04-07T10:24:15;101842.31;;;13.57;100.00
42587;BME280;28216;53.362;-6.288;2023-04-07T10:26:18;101839.06;;;13.63;100.00
42587;BME280;28216;53.362;-6.288;2023-04-07T10:28:49;101837.91;;;13.84;100.00
42587;BME280;28216;53.362;-6.288;2023-04-07T10:31:16;101844.13;;;14.00;100.00
42587;BME280;28216;53.362;-6.288;2023-04-07T10:33:51;101839.34;;;13.78;100.00
42587;BME280;28216;53.362;-6.288;2023-04-07T10:36:18;101843.22;;;13.92;100.00
42587;BME280;28216;53.362;-6.288;2023-04-07T10:41:32;101842.25;;;13.93;100.00
42587;BME280;28216;53.362;-6.288;2023-04-07T10:44:08;101838.88;;;13.83;100.00
42587;BME280;28216;53.362;-6.288;2023-04-07T10:49:13;101840.81;;;13.55;100.00
42587;BME280;28216;53.362;-6.288;2023-04-07T10:51:39;101837.69;;;13.77;100.00
42587;BME280;28216;53.362;-6.288;2023-04-07T10:59:30;101832.22;;;13.96;100.00
42587;BME280;28216;53.362;-6.288;2023-04-07T11:04:38;101837.59;;;13.43;100.00
42587;BME280;28216;53.362;-6.288;2023-04-07T11:07:03;101825.59;;;13.66;100.00
42587;BME280;28216;53.362;-6.288;2023-04-07T11:09:29;101834.19;;;13.51;100.00
42587;BME280;28216;53.362;-6.288;2023-04-07T11:11:54;101830.41;;;13.71;100.00
42587;BME280;28216;53.362;-6.288;2023-04-07T11:14:27;101828.91;;;13.68;100.00
42587;BME280;28216;53.362;-6.288;2023-04-07T11:16:54;101833.09;;;13.79;100.00
42587;BME280;28216;53.362;-6.288;2023-04-07T11:19:20;101831.59;;;13.77;100.00
42587;BME280;28216;53.362;-6.288;2023-04-07T11:21:45;101831.44;;;13.78;100.00
42587;BME280;28216;53.362;-6.288;2023-04-07T11:24:33;101832.44;;;13.77;100.00
42587;BME280;28216;53.362;-6.288;2023-04-07T11:26:59;101818.22;;;13.70;100.00
42587;BME280;28216;53.362;-6.288;2023-04-07T11:29:29;101828.59;;;13.72;100.00
42587;BME280;28216;53.362;-6.288;2023-04-07T11:31:58;101823.03;;;13.75;100.00
42587;BME280;28216;53.362;-6.288;2023-04-07T11:34:30;101837.13;;;13.65;100.00
42587;BME280;28216;53.362;-6.288;2023-04-07T11:36:56;101829.88;;;13.67;100.00
42587;BME280;28216;53.362;-6.288;2023-04-07T11:39:25;101834.66;;;13.46;100.00
42587;BME280;28216;53.362;-6.288;2023-04-07T11:41:56;101820.13;;;13.42;100.00
42587;BME280;28216;53.362;-6.288;2023-04-07T11:44:22;101832.38;;;13.69;100.00
42587;BME280;28216;53.362;-6.288;2023-04-07T11:46:54;101823.22;;;13.81;100.00
42587;BME280;28216;53.362;-6.288;2023-04-07T11:49:19;101820.69;;;13.97;100.00
42587;BME280;28216;53.362;-6.288;2023-04-07T11:51:45;101816.38;;;14.14;100.00
42587;BME280;28216;53.362;-6.288;2023-04-07T11:54:12;101825.63;;;14.18;100.00
42587;BME280;28216;53.362;-6.288;2023-04-07T11:56:45;101827.47;;;14.26;100.00
42587;BME280;28216;53.362;-6.288;2023-04-07T11:59:24;101804.72;;;14.25;100.00
42587;BME280;28216;53.362;-6.288;2023-04-07T12:01:51;101808.25;;;14.42;100.00
42587;BME280;28216;53.362;-6.288;2023-04-07T12:04:17;101801.91;;;14.60;100.00
42587;BME280;28216;53.362;-6.288;2023-04-07T12:06:45;101813.44;;;14.51;100.00
42587;BME280;28216;53.362;-6.288;2023-04-07T12:09:31;101815.81;;;14.37;100.00
42587;BME280;28216;53.362;-6.288;2023-04-07T12:11:59;101808.06;;;14.69;100.00
42587;BME280;28216;53.362;-6.288;2023-04-07T12:14:25;101799.81;;;14.72;100.00
42587;BME280;28216;53.362;-6.288;2023-04-07T12:16:52;101796.09;;;14.99;100.00
42587;BME280;28216;53.362;-6.288;2023-04-07T12:19:20;101805.34;;;15.11;100.00
42587;BME280;28216;53.362;-6.288;2023-04-07T12:21:45;101814.28;;;15.10;100.00
42587;BME280;28216;53.362;-6.288;2023-04-07T12:24:12;101807.44;;;14.83;100.00
42587;BME280;28216;53.362;-6.288;2023-04-07T12:26:37;101804.59;;;14.77;100.00
42587;BME280;28216;53.362;-6.288;2023-04-07T12:29:02;101815.56;;;14.48;100.00
42587;BME280;28216;53.362;-6.288;2023-04-07T12:31:31;101809.28;;;14.15;100.00
42587;BME280;28216;53.362;-6.288;2023-04-07T12:33:57;101804.69;;;14.17;100.00
42587;BME280;28216;53.362;-6.288;2023-04-07T12:36:24;101805.66;;;13.90;100.00
42587;BME280;28216;53.362;-6.288;2023-04-07T12:38:51;101805.28;;;13.85;100.00
42587;BME280;28216;53.362;-6.288;2023-04-07T12:41:17;101802.28;;;14.06;100.00
42587;BME280;28216;53.362;-6.288;2023-04-07T12:43:42;101808.16;;;14.17;100.00
42587;BME280;28216;53.362;-6.288;2023-04-07T12:46:07;101803.06;;;14.24;100.00
42587;BME280;28216;53.362;-6.288;2023-04-07T12:48:33;101797.66;;;14.34;100.00